Kyle Oakley Field

About
Name: Kyle Oakley Field
Identifier:  CEY/KCEY
Local Time:  20. Aug 09:58 CDT
Location
Flights per Day
0 flights
Distance: 630km (391mi)
Punctuality
-100% (0 flights per day delayed)
Delay Average: 25 minutes
Current Weather
 30 C (Humidity: 74%)
  6kt (11km/h / 6mph) from 220°
  16km (10 mi.)
 
 METAR KCEY 201435Z AUTO 22006KT 10SM CLR 30/25 A3010 RMK AO1

Current Flights

Departures
Number Departure To Airline
Arrivals
Number Arrival From Airline

Current Delays

Departures
N/A
Arrivals
N/A

Destinations

Top Destinations
Airport Flights
per week
Seats
per week
  Benton Harbor (BEH) 1 - 0 0
  Gulf Shores (GUF) 0 - 0 0
  Stevens Point (STE) 0 - 0 0
  St. Louis (SUS) 0 - 0 0
  Champaign (CMI) 0 - 0 0
  Harrisburg () 0 - 0 0
  Oakland County (PTK) 0 - 0 0
  Brownwood (BWD) 0 - 0 0
  Louisville (SDF) 0 - 0 0
  Tullahoma (THA) 0 - 0 0
  Teterboro (TEB) 0 - 0 0

Airlines & Planes

Top Airlines
Airline Flights
per Day
Seats
per Day
  Novair 0 -
  Flybe Nordic 0 -
Nordwind Airlines 0 -
Delta Private Jets 0 -
NetJets 0 0
Jet Charter Inc ( Franklin Lakes Nj ) 0 -
Top Plane Types
Model Flights Seats
Cessna C182 0.3/day - 0
Beech B200 Super King Air 0.1/day - 0
Embraer Phenom 300 0.0/day - -0.06666666666666667
Cessna C56X 0.0/day - 0
Beech A100 King Air 0.0/day - 0